createdAt,value
2022-12-19T00:01:17.281Z,51.30
2022-12-19T00:03:44.948Z,37.40
2022-12-19T00:06:11.408Z,45.83
2022-12-19T00:08:38.666Z,50.57
2022-12-19T00:11:05.030Z,50.17
2022-12-19T00:13:34.750Z,36.90
2022-12-19T00:16:11.269Z,40.73
2022-12-19T00:18:39.132Z,50.30
2022-12-19T00:21:06.183Z,48.57
2022-12-19T00:23:33.356Z,40.97
2022-12-19T00:26:09.008Z,39.83
2022-12-19T00:28:35.558Z,42.80
2022-12-19T00:31:02.678Z,52.37
2022-12-19T00:33:29.080Z,50.63
2022-12-19T00:36:00.471Z,51.70
2022-12-19T00:38:27.447Z,45.17
2022-12-19T00:40:54.007Z,36.03
2022-12-19T00:43:20.546Z,49.13
2022-12-19T00:45:46.993Z,39.50
2022-12-19T00:48:16.545Z,41.83
2022-12-19T00:50:45.026Z,37.53
2022-12-19T00:53:11.447Z,39.27
2022-12-19T00:55:38.283Z,43.77
2022-12-19T00:58:04.676Z,41.20
2022-12-19T01:00:31.157Z,63.40
2022-12-19T01:02:58.821Z,52.87
2022-12-19T01:05:25.331Z,45.73
2022-12-19T01:07:51.859Z,41.80
2022-12-19T01:10:18.263Z,44.60
2022-12-19T01:12:47.744Z,36.90
2022-12-19T01:15:15.675Z,45.07
2022-12-19T01:17:44.081Z,48.13
2022-12-19T01:20:11.301Z,39.97
2022-12-19T01:22:37.651Z,39.93
2022-12-19T01:25:05.425Z,42.60
2022-12-19T01:27:33.104Z,38.80
2022-12-19T01:29:59.497Z,53.83
2022-12-19T01:32:25.907Z,46.20
2022-12-19T01:34:52.323Z,43.70
2022-12-19T01:37:20.319Z,45.27
2022-12-19T01:39:46.800Z,42.37
2022-12-19T01:42:19.573Z,42.77
2022-12-19T01:45:19.125Z,48.73
2022-12-19T01:47:53.845Z,42.47
2022-12-19T01:50:25.316Z,39.27
2022-12-19T01:52:52.211Z,46.13
2022-12-19T01:55:19.305Z,40.37
2022-12-19T01:57:46.132Z,39.00
2022-12-19T02:00:12.861Z,39.47
2022-12-19T02:02:45.172Z,36.30
2022-12-19T02:05:11.763Z,48.50
2022-12-19T02:07:38.728Z,43.63
2022-12-19T02:10:05.546Z,39.43
2022-12-19T02:12:34.311Z,39.13
2022-12-19T02:15:03.248Z,39.23
2022-12-19T02:17:56.557Z,29.63
2022-12-19T02:20:26.032Z,42.87
2022-12-19T02:23:15.215Z,38.90
2022-12-19T02:26:00.537Z,42.07
2022-12-19T02:28:39.171Z,46.87
2022-12-19T02:31:16.833Z,41.13
2022-12-19T02:33:50.034Z,37.83
2022-12-19T02:36:25.222Z,35.47
2022-12-19T02:38:58.725Z,45.13
2022-12-19T02:41:43.384Z,40.93
2022-12-19T02:44:15.783Z,51.90
2022-12-19T02:46:43.403Z,37.43
2022-12-19T02:49:12.097Z,40.07
2022-12-19T02:51:43.023Z,44.50
2022-12-19T02:54:09.737Z,39.47
2022-12-19T02:56:38.875Z,42.73
2022-12-19T02:59:11.254Z,53.07
2022-12-19T03:01:43.842Z,57.03
2022-12-19T03:04:19.574Z,47.70
2022-12-19T03:07:01.732Z,48.80
2022-12-19T03:09:34.205Z,52.47
2022-12-19T03:12:04.178Z,48.00
2022-12-19T03:14:31.569Z,49.13
2022-12-19T03:17:02.364Z,43.53
2022-12-19T03:19:28.906Z,44.50
2022-12-19T03:21:55.330Z,46.77
2022-12-19T03:24:21.830Z,47.10
2022-12-19T03:26:52.154Z,46.57
2022-12-19T03:29:26.462Z,51.67
2022-12-19T03:31:53.822Z,46.87
2022-12-19T03:34:22.479Z,55.47
2022-12-19T03:36:52.421Z,52.13
2022-12-19T03:39:19.878Z,50.37
2022-12-19T03:42:04.999Z,53.67
2022-12-19T03:44:35.447Z,42.87
2022-12-19T03:47:08.570Z,52.57
2022-12-19T03:49:35.107Z,60.90
2022-12-19T03:52:17.272Z,45.90
2022-12-19T03:54:48.874Z,52.27
2022-12-19T03:57:18.327Z,62.10
2022-12-19T03:59:45.972Z,47.20
2022-12-19T04:02:14.036Z,49.67
2022-12-19T04:04:43.849Z,48.07
2022-12-19T04:07:11.195Z,57.40
2022-12-19T04:09:41.459Z,58.33
2022-12-19T04:12:15.790Z,45.10
2022-12-19T04:14:42.409Z,42.93
2022-12-19T04:17:27.313Z,53.17
2022-12-19T04:20:08.282Z,49.13
2022-12-19T04:22:43.802Z,51.07
2022-12-19T04:25:12.372Z,45.27
2022-12-19T04:27:41.164Z,48.27
2022-12-19T04:30:07.920Z,53.87
2022-12-19T04:32:35.573Z,44.67
2022-12-19T04:35:02.606Z,46.43
2022-12-19T04:37:29.439Z,45.63
2022-12-19T04:39:55.850Z,41.67
2022-12-19T04:42:23.953Z,51.83
2022-12-19T04:44:50.401Z,54.63
2022-12-19T04:47:16.958Z,47.33
2022-12-19T04:49:43.636Z,45.67
2022-12-19T04:52:10.070Z,44.00
2022-12-19T04:54:37.880Z,54.73
2022-12-19T04:57:04.330Z,51.07
2022-12-19T04:59:31.545Z,48.63
2022-12-19T05:01:58.197Z,42.07
2022-12-19T05:04:25.946Z,46.83
2022-12-19T05:06:52.428Z,44.00
2022-12-19T05:09:18.812Z,46.73
2022-12-19T05:11:45.219Z,40.53
2022-12-19T05:14:11.665Z,45.87
2022-12-19T05:16:38.059Z,45.93
2022-12-19T05:19:04.552Z,47.63
2022-12-19T05:21:30.914Z,35.83
2022-12-19T05:23:57.307Z,49.50
2022-12-19T05:26:23.799Z,40.43
2022-12-19T05:28:50.220Z,50.23
2022-12-19T05:31:18.268Z,349.87
2022-12-19T05:33:44.792Z,536.17
2022-12-19T05:36:11.547Z,203.17
2022-12-19T05:38:37.992Z,231.50
2022-12-19T05:41:09.558Z,67.83
2022-12-19T05:43:36.312Z,50.13
2022-12-19T05:46:04.432Z,47.27
2022-12-19T05:48:30.918Z,31.47
2022-12-19T05:50:57.613Z,32.97
2022-12-19T05:53:26.106Z,34.17
2022-12-19T05:55:52.702Z,39.80
2022-12-19T05:58:22.341Z,44.00
2022-12-19T06:00:48.748Z,39.13
2022-12-19T06:03:15.254Z,53.57
2022-12-19T06:05:41.770Z,52.07
2022-12-19T06:08:08.867Z,42.63
2022-12-19T06:10:35.354Z,48.73
2022-12-19T06:13:01.887Z,41.87
2022-12-19T06:15:28.315Z,34.53
2022-12-19T06:17:54.898Z,45.67
2022-12-19T06:20:21.296Z,34.70
2022-12-19T06:22:47.685Z,35.53
2022-12-19T06:25:14.114Z,33.53
2022-12-19T06:27:40.521Z,33.17
2022-12-19T06:30:07.164Z,40.17
2022-12-19T06:32:38.062Z,29.63
2022-12-19T06:35:05.214Z,40.43
2022-12-19T06:37:31.698Z,41.30
2022-12-19T06:39:59.325Z,49.37
2022-12-19T06:42:25.813Z,43.30
2022-12-19T06:44:53.666Z,37.83
2022-12-19T06:47:21.164Z,40.00
2022-12-19T06:49:48.599Z,35.23
2022-12-19T06:52:15.425Z,35.90
2022-12-19T06:54:42.590Z,32.30
2022-12-19T06:57:09.087Z,30.33
2022-12-19T06:59:35.557Z,34.77
2022-12-19T07:02:21.723Z,38.40
2022-12-19T07:04:51.085Z,42.03
2022-12-19T07:07:17.526Z,37.10
2022-12-19T07:09:43.961Z,34.27
2022-12-19T07:12:10.402Z,40.37
2022-12-19T07:14:36.839Z,51.00
2022-12-19T07:17:04.138Z,41.13
2022-12-19T07:19:31.472Z,43.63
2022-12-19T07:21:58.776Z,46.97
2022-12-19T07:24:25.236Z,32.83
2022-12-19T07:26:51.633Z,34.27
2022-12-19T07:29:18.046Z,46.13
2022-12-19T07:31:44.537Z,38.93
2022-12-19T07:34:11.062Z,32.70
2022-12-19T07:36:37.499Z,38.30
2022-12-19T07:39:03.897Z,36.37
2022-12-19T07:41:30.316Z,31.70
2022-12-19T07:43:56.717Z,34.80
2022-12-19T07:46:23.386Z,43.40
2022-12-19T07:48:50.754Z,31.40
2022-12-19T07:51:17.179Z,47.20
2022-12-19T07:53:44.997Z,43.40
2022-12-19T07:56:11.621Z,50.30
2022-12-19T07:58:38.077Z,50.67
2022-12-19T08:01:06.588Z,46.93
2022-12-19T08:03:34.370Z,51.73
2022-12-19T08:06:01.655Z,64.30
2022-12-19T08:08:28.504Z,46.00
2022-12-19T08:10:55.052Z,35.43
2022-12-19T08:13:21.477Z,35.73
2022-12-19T08:15:47.914Z,37.17
2022-12-19T08:18:14.368Z,46.27
2022-12-19T08:20:43.818Z,48.53
2022-12-19T08:23:10.220Z,44.87
2022-12-19T08:25:39.327Z,49.93
2022-12-19T08:28:05.731Z,36.17
2022-12-19T08:30:32.318Z,42.10
2022-12-19T08:32:58.797Z,36.73
2022-12-19T08:35:25.307Z,34.60
2022-12-19T08:37:51.712Z,44.80
2022-12-19T08:40:18.161Z,36.87
2022-12-19T08:42:44.598Z,45.90
2022-12-19T08:45:11.613Z,40.00
2022-12-19T08:47:38.050Z,42.93
2022-12-19T08:50:04.685Z,35.07
2022-12-19T08:52:31.136Z,38.43
2022-12-19T08:54:58.075Z,35.97
2022-12-19T08:57:24.431Z,49.67
2022-12-19T08:59:51.039Z,36.73
2022-12-19T09:02:18.668Z,39.37
2022-12-19T09:05:59.654Z,42.00
2022-12-19T09:07:31.686Z,38.37
2022-12-19T09:10:00.823Z,41.77
2022-12-19T09:12:27.315Z,41.43
2022-12-19T09:14:53.756Z,35.17
2022-12-19T09:17:20.935Z,39.23
2022-12-19T09:19:48.153Z,45.70
2022-12-19T09:22:14.935Z,46.83
2022-12-19T09:24:41.403Z,38.90
2022-12-19T09:27:07.843Z,47.93
2022-12-19T09:29:35.756Z,46.17
2022-12-19T09:32:02.739Z,49.73
2022-12-19T09:34:31.888Z,51.97
2022-12-19T09:37:05.038Z,55.93
2022-12-19T09:39:31.498Z,49.93
2022-12-19T09:42:13.544Z,37.87
2022-12-19T09:47:25.072Z,26.73
2022-12-19T09:49:52.093Z,32.03
2022-12-19T09:52:37.306Z,29.97
2022-12-19T09:55:22.704Z,31.10
2022-12-19T09:57:58.230Z,42.23
2022-12-19T10:00:28.773Z,36.97
2022-12-19T10:03:01.576Z,37.93
2022-12-19T10:07:00.898Z,43.43
2022-12-19T10:08:19.943Z,41.90
2022-12-19T10:12:39.648Z,35.57
2022-12-19T10:13:51.206Z,37.47
2022-12-19T10:16:27.217Z,34.72
2022-12-19T10:18:56.966Z,41.60
2022-12-19T10:22:16.145Z,39.70
2022-12-19T10:24:35.157Z,34.80
2022-12-19T10:27:06.464Z,36.77
2022-12-19T10:29:44.735Z,42.90
2022-12-19T10:32:11.551Z,39.47
2022-12-19T10:34:41.655Z,27.47
2022-12-19T10:37:26.569Z,38.77
2022-12-19T10:40:21.735Z,44.93
2022-12-19T10:42:55.173Z,46.77
2022-12-19T10:45:22.594Z,32.17
2022-12-19T10:47:55.732Z,41.20
2022-12-19T10:50:23.790Z,35.93
2022-12-19T10:52:52.420Z,40.53
2022-12-19T10:55:26.594Z,38.83
2022-12-19T10:57:53.275Z,38.27
2022-12-19T11:00:20.204Z,44.77
2022-12-19T11:02:48.360Z,41.07
2022-12-19T11:05:39.298Z,35.00
2022-12-19T11:08:08.794Z,41.50
2022-12-19T11:12:27.957Z,44.63
2022-12-19T11:18:38.873Z,48.00
2022-12-19T11:21:19.265Z,44.53
2022-12-19T11:24:55.028Z,36.53
2022-12-19T11:29:18.922Z,44.27
2022-12-19T11:29:30.743Z,38.27
2022-12-19T11:30:36.057Z,38.53
2022-12-19T11:33:18.811Z,91.97
2022-12-19T11:35:51.047Z,44.87
2022-12-19T11:38:21.278Z,41.20
2022-12-19T11:40:56.406Z,54.70
2022-12-19T11:43:46.679Z,35.87
2022-12-19T11:46:32.486Z,35.63
2022-12-19T11:49:02.476Z,36.83
2022-12-19T11:51:40.313Z,54.00
2022-12-19T11:54:12.201Z,59.57
2022-12-19T11:59:28.759Z,47.63
2022-12-19T12:02:02.631Z,53.93
2022-12-19T12:04:32.291Z,50.20
2022-12-19T12:07:00.068Z,51.53
2022-12-19T12:12:44.230Z,57.63
2022-12-19T12:17:45.321Z,45.13
2022-12-19T12:27:29.995Z,46.47
2022-12-19T12:31:06.986Z,58.10
2022-12-19T12:31:31.738Z,52.80
2022-12-19T12:31:38.742Z,44.43
2022-12-19T12:31:39.615Z,59.97
2022-12-19T12:31:48.337Z,47.77
2022-12-19T12:35:19.236Z,73.50
2022-12-19T12:38:22.915Z,48.77
2022-12-19T12:40:51.659Z,125.03
2022-12-19T12:43:24.749Z,59.27
2022-12-19T12:45:51.330Z,48.43
2022-12-19T12:48:21.431Z,56.83
2022-12-19T12:50:54.657Z,44.20
2022-12-19T12:53:24.303Z,160.40
2022-12-19T12:55:52.081Z,54.60
2022-12-19T12:58:37.457Z,56.27
2022-12-19T13:01:17.541Z,55.27
2022-12-19T13:03:53.124Z,71.07
2022-12-19T13:06:27.881Z,46.40
2022-12-19T13:09:02.556Z,46.80
2022-12-19T13:11:47.754Z,48.60
2022-12-19T13:14:32.935Z,49.63
2022-12-19T13:16:59.706Z,52.20
2022-12-19T13:19:29.039Z,68.60
2022-12-19T13:22:04.878Z,58.83
2022-12-19T13:24:41.549Z,57.93
2022-12-19T13:27:34.261Z,56.00
2022-12-19T13:30:00.827Z,51.20
2022-12-19T13:32:32.354Z,50.33
2022-12-19T13:35:17.899Z,59.40
2022-12-19T13:39:48.762Z,53.27
2022-12-19T13:40:44.126Z,59.97
2022-12-19T13:43:29.521Z,85.13
2022-12-19T13:45:57.898Z,83.80
2022-12-19T13:48:35.338Z,100.93
2022-12-19T13:51:06.543Z,85.30
2022-12-19T13:53:33.169Z,77.25
2022-12-19T13:56:01.366Z,65.60
2022-12-19T13:58:30.127Z,67.57
2022-12-19T14:00:58.880Z,68.07
2022-12-19T14:03:32.256Z,72.33
2022-12-19T14:06:18.457Z,80.00
2022-12-19T14:08:46.710Z,72.77
2022-12-19T14:11:34.855Z,66.57
2022-12-19T14:14:27.452Z,62.17
2022-12-19T14:16:55.786Z,57.85
2022-12-19T14:19:22.273Z,56.80
2022-12-19T14:22:08.753Z,56.60
2022-12-19T14:24:35.374Z,53.43
2022-12-19T14:28:24.083Z,67.00
2022-12-19T14:33:43.502Z,62.07
2022-12-19T14:36:08.910Z,74.50
2022-12-19T14:39:26.480Z,64.20
2022-12-19T14:41:54.679Z,72.73
2022-12-19T14:53:34.303Z,59.03
2022-12-19T14:54:00.855Z,66.70
2022-12-19T14:54:12.348Z,70.93
2022-12-19T14:54:55.255Z,70.90
2022-12-19T14:58:57.502Z,73.88
2022-12-19T15:01:26.455Z,60.47
2022-12-19T15:04:51.397Z,60.30
2022-12-19T15:11:08.943Z,62.03
2022-12-19T15:14:51.839Z,63.00
2022-12-19T15:15:45.793Z,61.50
2022-12-19T15:18:26.127Z,63.37
2022-12-19T15:20:53.398Z,71.23
2022-12-19T15:23:22.314Z,76.97
2022-12-19T15:26:07.125Z,80.20
2022-12-19T15:28:37.128Z,74.77
2022-12-19T15:31:06.968Z,67.23
2022-12-19T15:33:40.701Z,72.73
2022-12-19T15:36:14.745Z,68.15
2022-12-19T15:38:41.359Z,64.90
2022-12-19T15:56:52.256Z,63.20
2022-12-19T15:59:21.723Z,57.00
2022-12-19T16:01:48.444Z,59.40
2022-12-19T16:04:15.757Z,58.67
2022-12-19T16:06:42.981Z,58.00
2022-12-19T16:09:28.114Z,62.03
2022-12-19T16:11:55.007Z,55.67
2022-12-19T16:14:21.912Z,59.93
2022-12-19T16:16:54.886Z,70.80
2022-12-19T16:19:29.252Z,68.03
2022-12-19T16:21:57.112Z,65.33
2022-12-19T16:24:24.786Z,73.57
2022-12-19T16:26:53.080Z,64.90
2022-12-19T16:29:22.152Z,70.67
2022-12-19T16:31:48.946Z,87.23
2022-12-19T16:34:16.888Z,104.53
2022-12-19T16:53:24.191Z,108.67
2022-12-19T16:55:51.170Z,99.30
2022-12-19T17:16:23.998Z,78.00
2022-12-19T17:18:50.561Z,79.20
2022-12-19T17:21:18.303Z,85.83
2022-12-19T17:23:44.878Z,71.60
2022-12-19T17:26:15.846Z,72.33
2022-12-19T17:28:44.479Z,69.50
2022-12-19T17:31:14.173Z,59.93
2022-12-19T17:33:40.988Z,66.60
2022-12-19T17:36:07.942Z,65.33
2022-12-19T17:38:34.649Z,65.53
2022-12-19T17:41:01.152Z,57.83
2022-12-19T17:43:28.309Z,62.33
2022-12-19T17:45:54.811Z,58.13
2022-12-19T17:48:25.232Z,60.47
2022-12-19T17:50:51.781Z,57.43
2022-12-19T17:53:20.572Z,66.03
2022-12-19T17:55:47.023Z,56.03
2022-12-19T17:58:13.440Z,55.77
2022-12-19T18:00:42.254Z,59.97
2022-12-19T18:03:20.074Z,60.47
2022-12-19T18:05:46.714Z,63.90
2022-12-19T18:08:39.330Z,335.27
2022-12-19T18:11:07.749Z,87.87
2022-12-19T18:13:34.180Z,65.20
2022-12-19T18:16:01.482Z,61.67
2022-12-19T18:18:35.190Z,85.67
2022-12-19T18:21:02.759Z,62.33
2022-12-19T18:23:30.561Z,62.13
2022-12-19T18:26:01.467Z,51.47
2022-12-19T18:30:58.439Z,101.20
2022-12-19T18:33:25.206Z,69.57
2022-12-19T18:35:51.618Z,82.70
2022-12-19T18:38:19.281Z,58.47
2022-12-19T18:40:45.855Z,68.83
2022-12-19T18:43:14.109Z,66.80
2022-12-19T18:45:42.039Z,55.33
2022-12-19T18:48:14.173Z,65.17
2022-12-19T18:50:40.538Z,69.70
2022-12-19T18:53:11.326Z,73.27
2022-12-19T18:55:37.772Z,78.43
2022-12-19T18:58:04.217Z,70.20
2022-12-19T19:00:31.189Z,82.07
2022-12-19T19:03:02.272Z,73.27
2022-12-19T19:05:29.783Z,75.20
2022-12-19T19:07:58.901Z,60.23
2022-12-19T19:10:30.619Z,84.70
2022-12-19T19:12:57.871Z,73.25
2022-12-19T19:15:28.524Z,60.37
2022-12-19T19:18:02.544Z,57.00
2022-12-19T19:20:30.964Z,72.53
2022-12-19T19:22:57.894Z,61.90
2022-12-19T19:25:25.108Z,65.83
2022-12-19T19:27:52.021Z,78.53
2022-12-19T19:30:19.867Z,69.67
2022-12-19T19:32:48.994Z,80.93
2022-12-19T19:35:17.561Z,65.57
2022-12-19T19:37:44.984Z,72.63
2022-12-19T19:40:12.164Z,72.43
2022-12-19T19:42:38.614Z,70.63
2022-12-19T19:45:05.947Z,73.40
2022-12-19T19:47:36.068Z,70.80
2022-12-19T19:50:02.572Z,62.40
2022-12-19T19:52:28.955Z,60.10
2022-12-19T19:54:55.334Z,65.60
2022-12-19T19:57:21.824Z,63.27
2022-12-19T19:59:48.269Z,69.60
2022-12-19T20:02:16.874Z,61.73
2022-12-19T20:04:43.491Z,70.87
2022-12-19T20:07:09.897Z,66.20
2022-12-19T20:09:36.313Z,51.70
2022-12-19T20:12:02.737Z,65.03
2022-12-19T20:14:29.123Z,53.07
2022-12-19T20:16:55.870Z,63.47
2022-12-19T20:19:22.231Z,73.23
2022-12-19T20:21:48.636Z,62.43
2022-12-19T20:24:15.518Z,64.53
2022-12-19T20:26:42.077Z,61.57
2022-12-19T20:29:08.967Z,67.17
2022-12-19T20:31:35.579Z,63.43
2022-12-19T20:34:02.061Z,76.30
2022-12-19T20:36:28.534Z,59.40
2022-12-19T20:38:54.940Z,70.90
2022-12-19T20:41:21.631Z,58.60
2022-12-19T20:43:48.397Z,55.53
2022-12-19T20:46:16.258Z,143.37
2022-12-19T20:48:42.811Z,74.20
2022-12-19T20:51:09.978Z,60.20
2022-12-19T20:53:36.980Z,189.20
2022-12-19T20:56:03.979Z,72.33
2022-12-19T20:58:31.847Z,67.33
2022-12-19T21:01:03.292Z,58.60
2022-12-19T21:03:30.526Z,71.32
2022-12-19T21:05:57.254Z,95.07
2022-12-19T21:08:24.665Z,115.17
2022-12-19T21:10:51.754Z,188.27
2022-12-19T21:13:18.416Z,99.00
2022-12-19T21:15:47.699Z,95.47
2022-12-19T21:18:14.207Z,74.13
2022-12-19T21:20:40.679Z,74.47
2022-12-19T21:23:07.105Z,52.00
2022-12-19T21:25:33.533Z,57.43
2022-12-19T21:27:59.996Z,76.30
2022-12-19T21:30:26.395Z,77.80
2022-12-19T21:32:52.771Z,71.63
2022-12-19T21:35:19.220Z,61.00
2022-12-19T21:37:50.135Z,51.20
2022-12-19T21:40:17.145Z,54.20
2022-12-19T21:42:43.586Z,55.57
2022-12-19T21:45:10.828Z,55.67
2022-12-19T21:47:39.670Z,102.70
2022-12-19T21:50:07.204Z,61.53
2022-12-19T21:52:33.621Z,60.63
2022-12-19T21:55:00.080Z,58.00
2022-12-19T21:57:26.478Z,61.37
2022-12-19T21:59:52.948Z,49.23
2022-12-19T22:02:19.452Z,64.37
2022-12-19T22:04:46.052Z,50.27
2022-12-19T22:07:12.466Z,60.47
2022-12-19T22:09:38.887Z,73.07
2022-12-19T22:12:05.396Z,90.67
2022-12-19T22:14:34.417Z,59.27
2022-12-19T22:17:00.830Z,59.57
2022-12-19T22:19:27.226Z,47.93
2022-12-19T22:21:53.599Z,50.67
2022-12-19T22:24:20.289Z,56.37
2022-12-19T22:26:46.722Z,58.93
2022-12-19T22:29:14.575Z,51.00
2022-12-19T22:31:41.711Z,49.93
2022-12-19T22:34:09.791Z,46.47
2022-12-19T22:36:36.887Z,48.00
2022-12-19T22:39:04.575Z,48.90
2022-12-19T22:41:32.144Z,54.60
2022-12-19T22:43:58.569Z,63.07
2022-12-19T22:46:29.488Z,50.83
2022-12-19T22:48:57.459Z,139.73
2022-12-19T22:51:24.186Z,58.63
2022-12-19T22:53:50.593Z,61.07
2022-12-19T22:56:18.236Z,81.63
2022-12-19T22:58:45.986Z,53.80
2022-12-19T23:01:17.059Z,56.53
2022-12-19T23:03:44.401Z,74.68
2022-12-19T23:06:11.157Z,362.60
2022-12-19T23:08:37.948Z,176.73
2022-12-19T23:11:05.123Z,84.57
2022-12-19T23:13:31.770Z,531.37
2022-12-19T23:15:58.204Z,258.23
2022-12-19T23:18:24.573Z,127.60
2022-12-19T23:21:01.610Z,246.43
2022-12-19T23:23:29.294Z,659.93
2022-12-19T23:25:55.822Z,532.93
2022-12-19T23:28:22.222Z,255.20
2022-12-19T23:30:48.585Z,594.13
2022-12-19T23:33:15.949Z,457.17
2022-12-19T23:35:42.643Z,165.00
2022-12-19T23:38:09.223Z,228.67
2022-12-19T23:40:35.816Z,140.60
2022-12-19T23:43:02.429Z,134.20
2022-12-19T23:45:28.983Z,170.10
2022-12-19T23:47:55.382Z,148.67
2022-12-19T23:50:21.767Z,122.47
2022-12-19T23:52:48.229Z,137.27
2022-12-19T23:55:14.647Z,109.00
2022-12-19T23:57:41.086Z,153.97
